sensor_id;sensor_type;location;lat;lon;timestamp;P1;durP1;ratioP1;P2;durP2;ratioP2
24084;SDS011;12268;52.110;5.548;2023-11-21T00:01:05;107.82;;;11.02;;
24084;SDS011;12268;52.110;5.548;2023-11-21T00:03:33;41.88;;;9.27;;
24084;SDS011;12268;52.110;5.548;2023-11-21T00:05:59;29.67;;;9.95;;
24084;SDS011;12268;52.110;5.548;2023-11-21T00:16:11;56.88;;;9.93;;
24084;SDS011;12268;52.110;5.548;2023-11-21T00:18:37;110.97;;;9.60;;
24084;SDS011;12268;52.110;5.548;2023-11-21T00:21:02;50.88;;;10.48;;
24084;SDS011;12268;52.110;5.548;2023-11-21T00:23:28;110.35;;;10.65;;
24084;SDS011;12268;52.110;5.548;2023-11-21T00:25:54;33.60;;;9.63;;
24084;SDS011;12268;52.110;5.548;2023-11-21T00:28:19;176.32;;;12.50;;
24084;SDS011;12268;52.110;5.548;2023-11-21T00:30:45;37.35;;;10.30;;
24084;SDS011;12268;52.110;5.548;2023-11-21T00:33:10;29.63;;;10.80;;
24084;SDS011;12268;52.110;5.548;2023-11-21T00:35:36;30.73;;;10.25;;
24084;SDS011;12268;52.110;5.548;2023-11-21T00:40:37;159.40;;;10.60;;
24084;SDS011;12268;52.110;5.548;2023-11-21T00:43:03;60.97;;;10.05;;
24084;SDS011;12268;52.110;5.548;2023-11-21T00:45:28;49.83;;;10.18;;
24084;SDS011;12268;52.110;5.548;2023-11-21T00:47:54;59.40;;;9.85;;
24084;SDS011;12268;52.110;5.548;2023-11-21T00:50:20;79.18;;;10.80;;
24084;SDS011;12268;52.110;5.548;2023-11-21T00:52:46;75.32;;;10.43;;
24084;SDS011;12268;52.110;5.548;2023-11-21T00:55:12;103.57;;;10.40;;
24084;SDS011;12268;52.110;5.548;2023-11-21T00:57:37;122.30;;;10.65;;
24084;SDS011;12268;52.110;5.548;2023-11-21T01:00:03;106.07;;;10.75;;
24084;SDS011;12268;52.110;5.548;2023-11-21T01:02:38;92.32;;;10.35;;
24084;SDS011;12268;52.110;5.548;2023-11-21T01:05:04;47.20;;;9.50;;
24084;SDS011;12268;52.110;5.548;2023-11-21T01:07:32;26.83;;;9.88;;
24084;SDS011;12268;52.110;5.548;2023-11-21T01:09:58;34.60;;;9.63;;
24084;SDS011;12268;52.110;5.548;2023-11-21T01:12:24;32.03;;;9.63;;
24084;SDS011;12268;52.110;5.548;2023-11-21T01:14:50;24.65;;;10.07;;
24084;SDS011;12268;52.110;5.548;2023-11-21T01:17:15;20.67;;;10.50;;
24084;SDS011;12268;52.110;5.548;2023-11-21T01:19:41;21.75;;;10.55;;
24084;SDS011;12268;52.110;5.548;2023-11-21T01:22:07;30.15;;;10.77;;
24084;SDS011;12268;52.110;5.548;2023-11-21T01:24:33;29.67;;;10.90;;
24084;SDS011;12268;52.110;5.548;2023-11-21T01:26:59;28.85;;;11.05;;
24084;SDS011;12268;52.110;5.548;2023-11-21T01:29:24;32.47;;;11.32;;
24084;SDS011;12268;52.110;5.548;2023-11-21T01:31:50;25.75;;;11.05;;
24084;SDS011;12268;52.110;5.548;2023-11-21T01:34:16;25.38;;;11.18;;
24084;SDS011;12268;52.110;5.548;2023-11-21T01:36:42;28.05;;;11.90;;
24084;SDS011;12268;52.110;5.548;2023-11-21T01:39:07;32.00;;;11.23;;
24084;SDS011;12268;52.110;5.548;2023-11-21T01:41:36;26.27;;;11.73;;
24084;SDS011;12268;52.110;5.548;2023-11-21T01:44:01;26.00;;;11.82;;
24084;SDS011;12268;52.110;5.548;2023-11-21T01:46:27;25.75;;;11.02;;
24084;SDS011;12268;52.110;5.548;2023-11-21T01:48:54;26.48;;;11.23;;
24084;SDS011;12268;52.110;5.548;2023-11-21T01:51:19;29.05;;;11.40;;
24084;SDS011;12268;52.110;5.548;2023-11-21T01:53:45;23.85;;;11.02;;
24084;SDS011;12268;52.110;5.548;2023-11-21T01:56:11;26.27;;;10.88;;
24084;SDS011;12268;52.110;5.548;2023-11-21T01:58:37;25.70;;;11.15;;
24084;SDS011;12268;52.110;5.548;2023-11-21T02:01:04;30.85;;;10.60;;
24084;SDS011;12268;52.110;5.548;2023-11-21T02:03:30;22.52;;;11.20;;
24084;SDS011;12268;52.110;5.548;2023-11-21T02:05:56;35.13;;;12.00;;
24084;SDS011;12268;52.110;5.548;2023-11-21T02:08:21;30.60;;;11.63;;
24084;SDS011;12268;52.110;5.548;2023-11-21T02:10:47;26.95;;;11.27;;
24084;SDS011;12268;52.110;5.548;2023-11-21T02:13:13;30.08;;;11.52;;
24084;SDS011;12268;52.110;5.548;2023-11-21T02:15:38;24.17;;;11.52;;
24084;SDS011;12268;52.110;5.548;2023-11-21T02:18:04;28.30;;;11.02;;
24084;SDS011;12268;52.110;5.548;2023-11-21T02:20:31;28.98;;;11.73;;
24084;SDS011;12268;52.110;5.548;2023-11-21T02:22:59;26.73;;;12.07;;
24084;SDS011;12268;52.110;5.548;2023-11-21T02:25:25;24.83;;;10.77;;
24084;SDS011;12268;52.110;5.548;2023-11-21T02:27:55;20.10;;;11.35;;
24084;SDS011;12268;52.110;5.548;2023-11-21T02:30:22;25.85;;;11.02;;
24084;SDS011;12268;52.110;5.548;2023-11-21T02:32:50;26.40;;;12.43;;
24084;SDS011;12268;52.110;5.548;2023-11-21T02:35:18;25.08;;;10.90;;
24084;SDS011;12268;52.110;5.548;2023-11-21T02:37:46;23.52;;;10.50;;
24084;SDS011;12268;52.110;5.548;2023-11-21T02:40:12;25.05;;;11.15;;
24084;SDS011;12268;52.110;5.548;2023-11-21T02:42:38;21.08;;;10.77;;
24084;SDS011;12268;52.110;5.548;2023-11-21T02:45:05;24.60;;;11.52;;
24084;SDS011;12268;52.110;5.548;2023-11-21T02:47:31;24.30;;;11.38;;
24084;SDS011;12268;52.110;5.548;2023-11-21T02:49:57;23.00;;;10.65;;
24084;SDS011;12268;52.110;5.548;2023-11-21T02:52:22;26.08;;;11.07;;
24084;SDS011;12268;52.110;5.548;2023-11-21T02:54:48;20.33;;;10.00;;
24084;SDS011;12268;52.110;5.548;2023-11-21T02:57:14;21.77;;;10.55;;
24084;SDS011;12268;52.110;5.548;2023-11-21T02:59:40;21.63;;;11.32;;
24084;SDS011;12268;52.110;5.548;2023-11-21T03:02:05;20.02;;;10.05;;
24084;SDS011;12268;52.110;5.548;2023-11-21T03:04:33;18.98;;;10.10;;
24084;SDS011;12268;52.110;5.548;2023-11-21T03:07:00;22.30;;;10.20;;
24084;SDS011;12268;52.110;5.548;2023-11-21T03:09:25;22.05;;;11.52;;
24084;SDS011;12268;52.110;5.548;2023-11-21T03:11:51;25.38;;;11.00;;
24084;SDS011;12268;52.110;5.548;2023-11-21T03:14:18;21.80;;;10.70;;
24084;SDS011;12268;52.110;5.548;2023-11-21T03:16:43;23.98;;;10.32;;
24084;SDS011;12268;52.110;5.548;2023-11-21T03:19:10;22.48;;;10.00;;
24084;SDS011;12268;52.110;5.548;2023-11-21T03:21:36;24.08;;;10.60;;
24084;SDS011;12268;52.110;5.548;2023-11-21T03:24:01;17.23;;;10.18;;
24084;SDS011;12268;52.110;5.548;2023-11-21T03:26:27;20.40;;;9.82;;
24084;SDS011;12268;52.110;5.548;2023-11-21T03:28:54;22.33;;;9.70;;
24084;SDS011;12268;52.110;5.548;2023-11-21T03:31:20;20.67;;;10.13;;
24084;SDS011;12268;52.110;5.548;2023-11-21T03:33:46;23.90;;;9.77;;
24084;SDS011;12268;52.110;5.548;2023-11-21T03:36:12;19.33;;;9.88;;
24084;SDS011;12268;52.110;5.548;2023-11-21T03:38:39;23.25;;;9.38;;
24084;SDS011;12268;52.110;5.548;2023-11-21T03:41:05;21.27;;;10.05;;
24084;SDS011;12268;52.110;5.548;2023-11-21T03:43:31;21.48;;;9.82;;
24084;SDS011;12268;52.110;5.548;2023-11-21T03:45:57;27.00;;;10.32;;
24084;SDS011;12268;52.110;5.548;2023-11-21T03:48:22;21.38;;;9.63;;
24084;SDS011;12268;52.110;5.548;2023-11-21T03:50:48;22.85;;;9.60;;
24084;SDS011;12268;52.110;5.548;2023-11-21T03:53:13;28.15;;;9.77;;
24084;SDS011;12268;52.110;5.548;2023-11-21T03:55:39;24.33;;;9.38;;
24084;SDS011;12268;52.110;5.548;2023-11-21T03:58:05;17.20;;;9.70;;
24084;SDS011;12268;52.110;5.548;2023-11-21T04:00:30;21.58;;;9.32;;
24084;SDS011;12268;52.110;5.548;2023-11-21T04:02:56;26.50;;;10.38;;
24084;SDS011;12268;52.110;5.548;2023-11-21T04:05:22;20.27;;;10.15;;
24084;SDS011;12268;52.110;5.548;2023-11-21T04:07:51;23.35;;;11.05;;
24084;SDS011;12268;52.110;5.548;2023-11-21T04:10:17;21.20;;;10.93;;
24084;SDS011;12268;52.110;5.548;2023-11-21T04:12:43;26.55;;;11.13;;
24084;SDS011;12268;52.110;5.548;2023-11-21T04:15:10;22.00;;;9.43;;
24084;SDS011;12268;52.110;5.548;2023-11-21T04:17:36;25.40;;;10.85;;
24084;SDS011;12268;52.110;5.548;2023-11-21T04:20:02;23.83;;;10.38;;
24084;SDS011;12268;52.110;5.548;2023-11-21T04:24:58;25.75;;;10.02;;
24084;SDS011;12268;52.110;5.548;2023-11-21T04:27:24;23.30;;;11.32;;
24084;SDS011;12268;52.110;5.548;2023-11-21T04:29:49;25.23;;;11.73;;
24084;SDS011;12268;52.110;5.548;2023-11-21T04:32:15;28.27;;;11.15;;
24084;SDS011;12268;52.110;5.548;2023-11-21T04:34:41;24.38;;;10.60;;
24084;SDS011;12268;52.110;5.548;2023-11-21T04:37:06;22.83;;;10.93;;
24084;SDS011;12268;52.110;5.548;2023-11-21T04:39:32;28.55;;;10.68;;
24084;SDS011;12268;52.110;5.548;2023-11-21T04:41:57;22.80;;;10.82;;
24084;SDS011;12268;52.110;5.548;2023-11-21T04:44:23;32.55;;;10.85;;
24084;SDS011;12268;52.110;5.548;2023-11-21T04:46:48;25.98;;;11.40;;
24084;SDS011;12268;52.110;5.548;2023-11-21T04:49:14;32.42;;;12.30;;
24084;SDS011;12268;52.110;5.548;2023-11-21T04:51:40;30.90;;;11.32;;
24084;SDS011;12268;52.110;5.548;2023-11-21T04:54:05;22.27;;;11.55;;
24084;SDS011;12268;52.110;5.548;2023-11-21T04:56:31;25.80;;;12.18;;
24084;SDS011;12268;52.110;5.548;2023-11-21T04:58:56;28.33;;;12.18;;
24084;SDS011;12268;52.110;5.548;2023-11-21T05:01:22;33.00;;;11.80;;
24084;SDS011;12268;52.110;5.548;2023-11-21T05:03:47;27.00;;;11.02;;
24084;SDS011;12268;52.110;5.548;2023-11-21T05:06:14;29.10;;;11.50;;
24084;SDS011;12268;52.110;5.548;2023-11-21T05:08:39;38.40;;;13.10;;
24084;SDS011;12268;52.110;5.548;2023-11-21T05:11:05;25.83;;;11.27;;
24084;SDS011;12268;52.110;5.548;2023-11-21T05:13:35;27.45;;;11.32;;
24084;SDS011;12268;52.110;5.548;2023-11-21T05:16:01;27.58;;;11.85;;
24084;SDS011;12268;52.110;5.548;2023-11-21T05:18:29;31.20;;;11.90;;
24084;SDS011;12268;52.110;5.548;2023-11-21T05:20:55;29.98;;;11.95;;
24084;SDS011;12268;52.110;5.548;2023-11-21T05:23:21;22.45;;;10.85;;
24084;SDS011;12268;52.110;5.548;2023-11-21T05:25:47;28.23;;;11.52;;
24084;SDS011;12268;52.110;5.548;2023-11-21T05:28:12;22.73;;;11.32;;
24084;SDS011;12268;52.110;5.548;2023-11-21T05:30:38;28.50;;;11.05;;
24084;SDS011;12268;52.110;5.548;2023-11-21T05:33:04;32.30;;;11.13;;
24084;SDS011;12268;52.110;5.548;2023-11-21T05:35:30;32.83;;;11.77;;
24084;SDS011;12268;52.110;5.548;2023-11-21T05:37:56;27.90;;;11.85;;
24084;SDS011;12268;52.110;5.548;2023-11-21T05:40:21;30.77;;;12.00;;
24084;SDS011;12268;52.110;5.548;2023-11-21T05:42:47;29.98;;;11.07;;
24084;SDS011;12268;52.110;5.548;2023-11-21T05:45:13;31.67;;;11.90;;
24084;SDS011;12268;52.110;5.548;2023-11-21T05:47:41;31.95;;;11.43;;
24084;SDS011;12268;52.110;5.548;2023-11-21T05:50:10;28.50;;;11.73;;
24084;SDS011;12268;52.110;5.548;2023-11-21T05:52:39;32.22;;;11.10;;
24084;SDS011;12268;52.110;5.548;2023-11-21T05:55:06;33.33;;;11.90;;
24084;SDS011;12268;52.110;5.548;2023-11-21T05:57:33;23.95;;;10.40;;
24084;SDS011;12268;52.110;5.548;2023-11-21T06:00:01;34.83;;;11.48;;
24084;SDS011;12268;52.110;5.548;2023-11-21T06:02:40;32.20;;;11.45;;
24084;SDS011;12268;52.110;5.548;2023-11-21T06:05:08;27.90;;;11.23;;
24084;SDS011;12268;52.110;5.548;2023-11-21T06:07:35;28.27;;;11.32;;
24084;SDS011;12268;52.110;5.548;2023-11-21T06:10:07;29.45;;;11.65;;
24084;SDS011;12268;52.110;5.548;2023-11-21T06:12:36;32.97;;;11.70;;
24084;SDS011;12268;52.110;5.548;2023-11-21T06:15:02;34.92;;;11.98;;
24084;SDS011;12268;52.110;5.548;2023-11-21T06:17:30;35.15;;;11.60;;
24084;SDS011;12268;52.110;5.548;2023-11-21T06:19:56;36.00;;;12.65;;
24084;SDS011;12268;52.110;5.548;2023-11-21T06:22:22;28.33;;;12.70;;
24084;SDS011;12268;52.110;5.548;2023-11-21T06:24:47;27.30;;;11.60;;
24084;SDS011;12268;52.110;5.548;2023-11-21T06:27:13;33.40;;;11.45;;
24084;SDS011;12268;52.110;5.548;2023-11-21T06:29:38;27.85;;;11.93;;
24084;SDS011;12268;52.110;5.548;2023-11-21T06:32:04;34.65;;;11.65;;
24084;SDS011;12268;52.110;5.548;2023-11-21T06:34:30;42.58;;;12.52;;
24084;SDS011;12268;52.110;5.548;2023-11-21T06:36:56;26.70;;;10.88;;
24084;SDS011;12268;52.110;5.548;2023-11-21T06:39:21;29.92;;;12.48;;
24084;SDS011;12268;52.110;5.548;2023-11-21T06:41:49;27.30;;;11.68;;
24084;SDS011;12268;52.110;5.548;2023-11-21T06:44:15;27.98;;;11.98;;
24084;SDS011;12268;52.110;5.548;2023-11-21T06:46:40;28.35;;;10.80;;
24084;SDS011;12268;52.110;5.548;2023-11-21T06:49:07;24.35;;;10.65;;
24084;SDS011;12268;52.110;5.548;2023-11-21T06:51:33;31.25;;;11.95;;
24084;SDS011;12268;52.110;5.548;2023-11-21T06:53:59;29.38;;;11.70;;
24084;SDS011;12268;52.110;5.548;2023-11-21T06:56:25;26.73;;;10.55;;
24084;SDS011;12268;52.110;5.548;2023-11-21T06:58:50;28.05;;;11.02;;
24084;SDS011;12268;52.110;5.548;2023-11-21T07:01:19;23.67;;;11.43;;
24084;SDS011;12268;52.110;5.548;2023-11-21T07:03:45;31.73;;;11.80;;
24084;SDS011;12268;52.110;5.548;2023-11-21T07:06:10;33.15;;;11.90;;
24084;SDS011;12268;52.110;5.548;2023-11-21T07:08:36;25.95;;;11.10;;
24084;SDS011;12268;52.110;5.548;2023-11-21T07:11:02;30.08;;;11.55;;
24084;SDS011;12268;52.110;5.548;2023-11-21T07:13:28;30.25;;;10.77;;
24084;SDS011;12268;52.110;5.548;2023-11-21T07:15:54;27.73;;;10.68;;
24084;SDS011;12268;52.110;5.548;2023-11-21T07:18:20;29.95;;;11.02;;
24084;SDS011;12268;52.110;5.548;2023-11-21T07:20:45;25.17;;;11.50;;
24084;SDS011;12268;52.110;5.548;2023-11-21T07:23:11;28.13;;;11.88;;
24084;SDS011;12268;52.110;5.548;2023-11-21T07:25:37;27.85;;;11.18;;
24084;SDS011;12268;52.110;5.548;2023-11-21T07:28:02;22.73;;;10.98;;
24084;SDS011;12268;52.110;5.548;2023-11-21T07:30:30;31.67;;;11.02;;
24084;SDS011;12268;52.110;5.548;2023-11-21T07:32:55;22.27;;;10.50;;
24084;SDS011;12268;52.110;5.548;2023-11-21T07:35:21;28.65;;;11.32;;
24084;SDS011;12268;52.110;5.548;2023-11-21T07:37:47;22.88;;;10.88;;
24084;SDS011;12268;52.110;5.548;2023-11-21T07:40:13;27.35;;;11.40;;
24084;SDS011;12268;52.110;5.548;2023-11-21T07:42:39;23.17;;;10.02;;
24084;SDS011;12268;52.110;5.548;2023-11-21T07:45:05;25.33;;;10.40;;
24084;SDS011;12268;52.110;5.548;2023-11-21T07:47:32;29.42;;;10.52;;
24084;SDS011;12268;52.110;5.548;2023-11-21T07:49:59;24.70;;;10.40;;
24084;SDS011;12268;52.110;5.548;2023-11-21T07:52:25;31.77;;;10.80;;
24084;SDS011;12268;52.110;5.548;2023-11-21T07:54:50;26.00;;;9.85;;
24084;SDS011;12268;52.110;5.548;2023-11-21T07:57:16;20.98;;;9.90;;
24084;SDS011;12268;52.110;5.548;2023-11-21T07:59:42;24.35;;;9.88;;
24084;SDS011;12268;52.110;5.548;2023-11-21T08:02:07;24.58;;;10.40;;
24084;SDS011;12268;52.110;5.548;2023-11-21T08:04:33;44.17;;;10.45;;
24084;SDS011;12268;52.110;5.548;2023-11-21T08:07:00;22.98;;;9.07;;
24084;SDS011;12268;52.110;5.548;2023-11-21T08:09:26;21.42;;;9.45;;
24084;SDS011;12268;52.110;5.548;2023-11-21T08:11:52;19.25;;;9.55;;
24084;SDS011;12268;52.110;5.548;2023-11-21T08:14:18;22.67;;;9.98;;
24084;SDS011;12268;52.110;5.548;2023-11-21T08:16:44;21.70;;;9.07;;
24084;SDS011;12268;52.110;5.548;2023-11-21T08:19:09;20.98;;;9.55;;
24084;SDS011;12268;52.110;5.548;2023-11-21T08:21:36;25.10;;;9.63;;
24084;SDS011;12268;52.110;5.548;2023-11-21T08:24:02;23.05;;;9.27;;
24084;SDS011;12268;52.110;5.548;2023-11-21T08:26:29;21.52;;;10.45;;
24084;SDS011;12268;52.110;5.548;2023-11-21T08:28:55;27.13;;;9.95;;
24084;SDS011;12268;52.110;5.548;2023-11-21T08:31:27;27.23;;;10.65;;
24084;SDS011;12268;52.110;5.548;2023-11-21T08:33:53;26.90;;;9.80;;
24084;SDS011;12268;52.110;5.548;2023-11-21T08:36:20;21.27;;;8.95;;
24084;SDS011;12268;52.110;5.548;2023-11-21T08:38:50;25.40;;;9.82;;
24084;SDS011;12268;52.110;5.548;2023-11-21T08:41:19;22.45;;;8.60;;
24084;SDS011;12268;52.110;5.548;2023-11-21T08:43:49;28.23;;;9.38;;
24084;SDS011;12268;52.110;5.548;2023-11-21T08:46:15;19.73;;;9.20;;
24084;SDS011;12268;52.110;5.548;2023-11-21T08:48:43;20.75;;;9.63;;
24084;SDS011;12268;52.110;5.548;2023-11-21T08:51:09;24.70;;;9.30;;
24084;SDS011;12268;52.110;5.548;2023-11-21T08:53:36;23.25;;;9.88;;
24084;SDS011;12268;52.110;5.548;2023-11-21T08:56:02;25.35;;;10.15;;
24084;SDS011;12268;52.110;5.548;2023-11-21T08:58:29;23.83;;;9.95;;
24084;SDS011;12268;52.110;5.548;2023-11-21T09:00:55;25.42;;;10.73;;
24084;SDS011;12268;52.110;5.548;2023-11-21T09:03:21;26.40;;;10.20;;
24084;SDS011;12268;52.110;5.548;2023-11-21T09:05:46;21.60;;;9.90;;
24084;SDS011;12268;52.110;5.548;2023-11-21T09:08:12;33.45;;;11.55;;
24084;SDS011;12268;52.110;5.548;2023-11-21T09:10:38;27.13;;;11.50;;
24084;SDS011;12268;52.110;5.548;2023-11-21T09:13:04;33.85;;;11.90;;
24084;SDS011;12268;52.110;5.548;2023-11-21T09:15:30;27.98;;;12.15;;
24084;SDS011;12268;52.110;5.548;2023-11-21T09:17:55;28.00;;;12.18;;
24084;SDS011;12268;52.110;5.548;2023-11-21T09:20:21;27.70;;;12.23;;
24084;SDS011;12268;52.110;5.548;2023-11-21T09:22:48;30.08;;;12.15;;
24084;SDS011;12268;52.110;5.548;2023-11-21T09:25:14;24.10;;;11.00;;
24084;SDS011;12268;52.110;5.548;2023-11-21T09:27:40;26.33;;;11.32;;
24084;SDS011;12268;52.110;5.548;2023-11-21T09:30:06;25.13;;;11.40;;
24084;SDS011;12268;52.110;5.548;2023-11-21T09:32:34;25.33;;;11.30;;
24084;SDS011;12268;52.110;5.548;2023-11-21T09:35:02;23.42;;;10.88;;
24084;SDS011;12268;52.110;5.548;2023-11-21T09:37:28;22.77;;;10.57;;
24084;SDS011;12268;52.110;5.548;2023-11-21T09:39:54;23.92;;;11.02;;
24084;SDS011;12268;52.110;5.548;2023-11-21T09:42:25;24.00;;;11.10;;
24084;SDS011;12268;52.110;5.548;2023-11-21T09:45:00;24.27;;;10.75;;
24084;SDS011;12268;52.110;5.548;2023-11-21T09:47:30;17.00;;;9.23;;
24084;SDS011;12268;52.110;5.548;2023-11-21T09:49:58;18.73;;;9.90;;
24084;SDS011;12268;52.110;5.548;2023-11-21T09:52:26;20.65;;;10.10;;
24084;SDS011;12268;52.110;5.548;2023-11-21T09:54:53;20.90;;;10.27;;
24084;SDS011;12268;52.110;5.548;2023-11-21T09:57:22;19.67;;;9.60;;
24084;SDS011;12268;52.110;5.548;2023-11-21T09:59:52;18.55;;;9.02;;
24084;SDS011;12268;52.110;5.548;2023-11-21T10:02:24;18.48;;;8.65;;
24084;SDS011;12268;52.110;5.548;2023-11-21T10:04:51;17.95;;;8.40;;
24084;SDS011;12268;52.110;5.548;2023-11-21T10:07:18;14.32;;;8.32;;
24084;SDS011;12268;52.110;5.548;2023-11-21T10:09:45;16.38;;;7.85;;
24084;SDS011;12268;52.110;5.548;2023-11-21T10:12:12;18.77;;;8.98;;
24084;SDS011;12268;52.110;5.548;2023-11-21T10:14:40;18.42;;;8.68;;
24084;SDS011;12268;52.110;5.548;2023-11-21T10:17:08;16.60;;;8.40;;
24084;SDS011;12268;52.110;5.548;2023-11-21T10:19:38;16.23;;;8.43;;
24084;SDS011;12268;52.110;5.548;2023-11-21T10:22:04;17.52;;;8.63;;
24084;SDS011;12268;52.110;5.548;2023-11-21T10:24:32;17.30;;;9.00;;
24084;SDS011;12268;52.110;5.548;2023-11-21T10:26:58;17.38;;;8.95;;
24084;SDS011;12268;52.110;5.548;2023-11-21T10:29:28;16.30;;;8.75;;
24084;SDS011;12268;52.110;5.548;2023-11-21T10:31:55;17.15;;;9.35;;
24084;SDS011;12268;52.110;5.548;2023-11-21T10:34:23;19.23;;;9.77;;
24084;SDS011;12268;52.110;5.548;2023-11-21T10:36:49;18.05;;;9.60;;
24084;SDS011;12268;52.110;5.548;2023-11-21T10:39:18;17.77;;;8.05;;
24084;SDS011;12268;52.110;5.548;2023-11-21T10:41:45;18.38;;;8.85;;
24084;SDS011;12268;52.110;5.548;2023-11-21T10:44:15;18.63;;;8.90;;
24084;SDS011;12268;52.110;5.548;2023-11-21T10:46:52;23.00;;;11.00;;
24084;SDS011;12268;52.110;5.548;2023-11-21T10:49:21;22.40;;;10.43;;
24084;SDS011;12268;52.110;5.548;2023-11-21T10:51:50;23.50;;;10.10;;
24084;SDS011;12268;52.110;5.548;2023-11-21T10:54:18;21.38;;;10.65;;
24084;SDS011;12268;52.110;5.548;2023-11-21T10:56:45;22.70;;;9.18;;
24084;SDS011;12268;52.110;5.548;2023-11-21T10:59:13;17.90;;;8.18;;
24084;SDS011;12268;52.110;5.548;2023-11-21T11:01:41;18.67;;;8.38;;
24084;SDS011;12268;52.110;5.548;2023-11-21T11:04:09;18.90;;;8.25;;
24084;SDS011;12268;52.110;5.548;2023-11-21T11:06:41;16.98;;;8.77;;
24084;SDS011;12268;52.110;5.548;2023-11-21T11:09:09;22.40;;;10.60;;
24084;SDS011;12268;52.110;5.548;2023-11-21T11:11:38;18.48;;;8.90;;
24084;SDS011;12268;52.110;5.548;2023-11-21T11:14:10;26.35;;;10.43;;
24084;SDS011;12268;52.110;5.548;2023-11-21T11:16:37;23.35;;;10.23;;
24084;SDS011;12268;52.110;5.548;2023-11-21T11:19:06;20.02;;;9.60;;
24084;SDS011;12268;52.110;5.548;2023-11-21T11:27:30;19.25;;;8.93;;
24084;SDS011;12268;52.110;5.548;2023-11-21T11:38:21;28.23;;;10.80;;
24084;SDS011;12268;52.110;5.548;2023-11-21T11:40:48;23.85;;;11.27;;
24084;SDS011;12268;52.110;5.548;2023-11-21T11:43:25;27.38;;;10.57;;
24084;SDS011;12268;52.110;5.548;2023-11-21T11:45:51;23.73;;;10.95;;
24084;SDS011;12268;52.110;5.548;2023-11-21T11:48:20;26.27;;;10.95;;
24084;SDS011;12268;52.110;5.548;2023-11-21T11:51:00;24.33;;;11.23;;
24084;SDS011;12268;52.110;5.548;2023-11-21T11:53:35;22.38;;;9.90;;
24084;SDS011;12268;52.110;5.548;2023-11-21T11:58:59;31.45;;;11.70;;
24084;SDS011;12268;52.110;5.548;2023-11-21T12:01:27;27.15;;;11.63;;
24084;SDS011;12268;52.110;5.548;2023-11-21T12:06:59;25.42;;;10.38;;
24084;SDS011;12268;52.110;5.548;2023-11-21T12:09:27;22.58;;;9.98;;
24084;SDS011;12268;52.110;5.548;2023-11-21T12:11:55;23.80;;;10.68;;
24084;SDS011;12268;52.110;5.548;2023-11-21T12:14:24;22.88;;;10.18;;
24084;SDS011;12268;52.110;5.548;2023-11-21T12:16:50;25.00;;;10.18;;
24084;SDS011;12268;52.110;5.548;2023-11-21T12:19:16;26.30;;;10.20;;
24084;SDS011;12268;52.110;5.548;2023-11-21T12:21:42;25.63;;;10.23;;
24084;SDS011;12268;52.110;5.548;2023-11-21T12:24:09;21.08;;;9.68;;
24084;SDS011;12268;52.110;5.548;2023-11-21T12:26:38;26.05;;;10.30;;
24084;SDS011;12268;52.110;5.548;2023-11-21T12:29:04;25.40;;;10.73;;
24084;SDS011;12268;52.110;5.548;2023-11-21T12:31:32;22.05;;;10.52;;
24084;SDS011;12268;52.110;5.548;2023-11-21T12:33:58;24.38;;;11.48;;
24084;SDS011;12268;52.110;5.548;2023-11-21T12:36:24;24.02;;;10.85;;
24084;SDS011;12268;52.110;5.548;2023-11-21T12:38:50;23.45;;;11.55;;
24084;SDS011;12268;52.110;5.548;2023-11-21T12:41:16;24.55;;;10.85;;
24084;SDS011;12268;52.110;5.548;2023-11-21T12:43:46;20.45;;;9.13;;
24084;SDS011;12268;52.110;5.548;2023-11-21T12:46:12;20.17;;;10.43;;
24084;SDS011;12268;52.110;5.548;2023-11-21T12:48:39;19.13;;;9.63;;
24084;SDS011;12268;52.110;5.548;2023-11-21T12:51:09;17.08;;;9.35;;
24084;SDS011;12268;52.110;5.548;2023-11-21T12:53:36;20.13;;;9.18;;
24084;SDS011;12268;52.110;5.548;2023-11-21T12:56:12;19.08;;;9.27;;
24084;SDS011;12268;52.110;5.548;2023-11-21T16:38:44;15.13;;;8.77;;
24084;SDS011;12268;52.110;5.548;2023-11-21T16:41:09;17.88;;;9.35;;
24084;SDS011;12268;52.110;5.548;2023-11-21T16:43:35;15.82;;;8.93;;
24084;SDS011;12268;52.110;5.548;2023-11-21T16:46:00;13.60;;;8.10;;
24084;SDS011;12268;52.110;5.548;2023-11-21T16:48:26;15.77;;;8.63;;
24084;SDS011;12268;52.110;5.548;2023-11-21T16:50:52;14.23;;;7.72;;
24084;SDS011;12268;52.110;5.548;2023-11-21T16:53:18;17.00;;;8.57;;
24084;SDS011;12268;52.110;5.548;2023-11-21T16:55:43;17.63;;;8.15;;
24084;SDS011;12268;52.110;5.548;2023-11-21T17:57:41;21.25;;;10.00;;
24084;SDS011;12268;52.110;5.548;2023-11-21T18:00:07;22.95;;;10.25;;
24084;SDS011;12268;52.110;5.548;2023-11-21T18:02:37;15.60;;;8.73;;
24084;SDS011;12268;52.110;5.548;2023-11-21T18:05:03;18.92;;;9.60;;
24084;SDS011;12268;52.110;5.548;2023-11-21T18:07:37;17.10;;;9.98;;
24084;SDS011;12268;52.110;5.548;2023-11-21T18:10:03;16.80;;;9.63;;
24084;SDS011;12268;52.110;5.548;2023-11-21T18:12:31;16.90;;;8.75;;
24084;SDS011;12268;52.110;5.548;2023-11-21T18:14:56;18.38;;;9.48;;
24084;SDS011;12268;52.110;5.548;2023-11-21T18:17:22;20.65;;;9.90;;
24084;SDS011;12268;52.110;5.548;2023-11-21T18:22:23;16.65;;;9.10;;
24084;SDS011;12268;52.110;5.548;2023-11-21T18:24:51;18.75;;;9.40;;
24084;SDS011;12268;52.110;5.548;2023-11-21T18:27:19;16.10;;;8.40;;
24084;SDS011;12268;52.110;5.548;2023-11-21T18:29:52;17.02;;;8.80;;
24084;SDS011;12268;52.110;5.548;2023-11-21T18:32:24;18.23;;;9.63;;
24084;SDS011;12268;52.110;5.548;2023-11-21T18:34:51;18.85;;;9.27;;
24084;SDS011;12268;52.110;5.548;2023-11-21T18:37:17;17.98;;;8.68;;
24084;SDS011;12268;52.110;5.548;2023-11-21T18:39:43;17.52;;;8.75;;
24084;SDS011;12268;52.110;5.548;2023-11-21T18:42:10;19.70;;;9.20;;
24084;SDS011;12268;52.110;5.548;2023-11-21T18:44:35;16.83;;;8.32;;
24084;SDS011;12268;52.110;5.548;2023-11-21T18:47:01;18.20;;;9.23;;
24084;SDS011;12268;52.110;5.548;2023-11-21T18:49:27;17.88;;;9.38;;
24084;SDS011;12268;52.110;5.548;2023-11-21T18:51:54;15.82;;;8.38;;
24084;SDS011;12268;52.110;5.548;2023-11-21T18:54:21;19.10;;;9.07;;
24084;SDS011;12268;52.110;5.548;2023-11-21T18:56:46;19.30;;;9.80;;
24084;SDS011;12268;52.110;5.548;2023-11-21T18:59:12;16.80;;;9.20;;
24084;SDS011;12268;52.110;5.548;2023-11-21T19:01:38;18.67;;;9.27;;
24084;SDS011;12268;52.110;5.548;2023-11-21T19:04:05;19.15;;;10.05;;
24084;SDS011;12268;52.110;5.548;2023-11-21T19:06:30;18.00;;;8.60;;
24084;SDS011;12268;52.110;5.548;2023-11-21T19:08:57;19.77;;;8.68;;
24084;SDS011;12268;52.110;5.548;2023-11-21T19:11:23;16.90;;;8.13;;
24084;SDS011;12268;52.110;5.548;2023-11-21T19:13:49;19.27;;;9.07;;
24084;SDS011;12268;52.110;5.548;2023-11-21T19:16:15;18.20;;;9.52;;
24084;SDS011;12268;52.110;5.548;2023-11-21T19:18:41;18.15;;;8.85;;
24084;SDS011;12268;52.110;5.548;2023-11-21T19:21:14;19.08;;;8.13;;
24084;SDS011;12268;52.110;5.548;2023-11-21T19:23:44;17.10;;;8.60;;
24084;SDS011;12268;52.110;5.548;2023-11-21T19:26:17;17.08;;;9.10;;
24084;SDS011;12268;52.110;5.548;2023-11-21T19:28:43;18.15;;;8.90;;
24084;SDS011;12268;52.110;5.548;2023-11-21T19:31:18;15.93;;;7.82;;
24084;SDS011;12268;52.110;5.548;2023-11-21T19:33:48;18.88;;;9.80;;
24084;SDS011;12268;52.110;5.548;2023-11-21T19:36:17;20.05;;;9.80;;
24084;SDS011;12268;52.110;5.548;2023-11-21T19:38:43;16.45;;;9.00;;